Havre, MT (59501)

9:13 AM MDT on October 30, 2014 (GMT -0600)
41 NOrth of Havre on HWY 232 | Change Station
CLOSE
Current Station
Personal Weather Station
Location: Havre, MT
Elevation: 2752 ft
Nearby Weather Stations

Elev 2752 ft 48.60 °N, 109.71 °W | Updated 58 seconds ago

Clear
Clear
25.7 °F
Feels Like 16 °F
N
10.5
Wind Variable Wind from ENE
Gusts 10.5 mph

Today
High -- | Low -- °F
--% Chance of Precip.
Yesterday
High -- | Low -- °F
Precip. -- in
8:01 AM 6:02 PM
Waxing Crescent, 44% visible
Pressure 30.30 in
Visibility 0.2 miles
Clouds
Windchill 16 °F
Dew Point 24 °F
Humidity 92%
Rainfall 0.00 in
Snow Depth Not available.
UV Not available.
Pollen 2.10 out of 12
Air Quality Not available.
Flu Activity Not available.
SPECI KHVR 301504Z AUTO 08010KT 1/4SM FZFG VV002 M02/M02 A3030 RMK AO2 T10171022 $

More Conditions Fewer Conditions

Pressure 30.30 in
Visibility 0.2 miles
Clouds
Windchill 16 °F
Dew Point 24 °F
Humidity 92%
Rainfall 0.00 in
Snow Depth Not available.
UV Not available.
Pollen 2.10 out of 12
Air Quality Not available.
Flu Activity Not available.
SPECI KHVR 301504Z AUTO 08010KT 1/4SM FZFG VV002 M02/M02 A3030 RMK AO2 T10171022 $

More Conditions Fewer Conditions

10-Day Weather Forecast

Almanac

Astronomy

Oct. 30, 2014 Rise Set
Actual Time
Civil Twilight
Nautical Twilight
Astronomical Twilight
Moon
Length of Visible Light
Length of Day
Tomorrow will be .
, % of the Moon is Illuminated

Today's Extremes

State Highs State Lows

Community

WunderPhotos

Upload Photos

1,766,387 photos uploaded!

WunderBlogs® & News

Nearby

Air Quality

  Air Quality AQ Index Pollutant
Not available.

Snow Depth

Station Depth Elevation

Earthquake Activity

City Distance Mag. Time & Date
Minimum magnitude displayed is 2.5.

Coastal Water Temperatures

Place Temperature

Nearby Weather Stations